Time;durP1;ratioP1;P1;durP2;ratioP2;P2;SDS_P1;SDS_P2;PMS_P1;PMS_P2;Temp;Humidity;BMP_temperature;BMP_pressure;BME280_temperature;BME280_humidity;BME280_pressure;Samples;Min_cycle;Max_cycle;Signal;HPM_P1;HPM_P2
2023/10/21 00:02:11;;;;;;;0.00;0.00;;;;;;;;;;4994722;28;20667;-86
2023/10/21 00:04:36;;;;;;;0.00;0.00;;;;;;;;;;4993479;28;20188;-85
2023/10/21 00:07:01;;;;;;;0.00;0.00;;;;;;;;;;4992865;28;20214;-86
2023/10/21 00:09:26;;;;;;;0.10;0.10;;;;;;;;;;4992708;28;20181;-86
2023/10/21 00:11:51;;;;;;;0.07;0.07;;;;;;;;;;4992973;28;20180;-86
2023/10/21 00:14:17;;;;;;;0.53;0.53;;;;;;;;;;4993690;28;20666;-86
2023/10/21 00:16:42;;;;;;;0.00;0.00;;;;;;;;;;4992480;28;20201;-86
2023/10/21 00:19:08;;;;;;;0.67;0.67;;;;;;;;;;4993441;28;20231;-86
2023/10/21 00:21:33;;;;;;;0.73;0.73;;;;;;;;;;4993280;28;20228;-86
2023/10/21 00:23:58;;;;;;;0.43;0.43;;;;;;;;;;4993419;28;20181;-85
2023/10/21 00:26:23;;;;;;;0.00;0.00;;;;;;;;;;4993341;28;20604;-85
2023/10/21 00:28:49;;;;;;;0.47;0.47;;;;;;;;;;4993328;28;20177;-85
2023/10/21 00:31:14;;;;;;;0.00;0.00;;;;;;;;;;4990022;28;20180;-85
2023/10/21 00:33:39;;;;;;;0.17;0.17;;;;;;;;;;4992347;28;20185;-86
2023/10/21 00:36:25;;;;;;;0.00;0.00;;;;;;;;;;4993178;28;20212;-85
2023/10/21 00:38:50;;;;;;;0.20;0.20;;;;;;;;;;4991986;28;20244;-85
2023/10/21 00:41:15;;;;;;;0.00;0.00;;;;;;;;;;4993104;28;20215;-85
2023/10/21 00:43:40;;;;;;;0.00;0.00;;;;;;;;;;4992986;28;20239;-85
2023/10/21 00:46:09;;;;;;;4.00;3.80;;;;;;;;;;4993252;28;20241;-85
2023/10/21 00:48:34;;;;;;;0.03;0.03;;;;;;;;;;4991997;28;20183;-85
2023/10/21 00:51:00;;;;;;;0.33;0.33;;;;;;;;;;4993636;28;20252;-86
2023/10/21 00:53:25;;;;;;;0.30;0.30;;;;;;;;;;4992575;28;20177;-86
2023/10/21 00:55:51;;;;;;;0.00;0.00;;;;;;;;;;4992966;28;20238;-86
2023/10/21 00:58:26;;;;;;;0.10;0.10;;;;;;;;;;4993010;28;20208;-85
2023/10/21 01:00:51;;;;;;;0.00;0.00;;;;;;;;;;4987863;28;20183;-86
2023/10/21 01:03:17;;;;;;;1.13;1.13;;;;;;;;;;4992896;28;20181;-85
2023/10/21 01:05:54;;;;;;;0.00;0.00;;;;;;;;;;4993475;28;20201;-86
2023/10/21 01:08:19;;;;;;;0.40;0.40;;;;;;;;;;4993486;28;20274;-85
2023/10/21 01:10:44;;;;;;;0.10;0.10;;;;;;;;;;4993837;28;20177;-86
2023/10/21 01:13:10;;;;;;;0.00;0.00;;;;;;;;;;4992381;28;20176;-86
2023/10/21 01:15:35;;;;;;;0.10;0.10;;;;;;;;;;4991366;28;20260;-86
2023/10/21 01:18:01;;;;;;;0.97;0.97;;;;;;;;;;4992620;28;20281;-86
2023/10/21 01:20:26;;;;;;;0.30;0.30;;;;;;;;;;4992405;28;20597;-86
2023/10/21 01:22:54;;;;;;;1.17;1.17;;;;;;;;;;4991788;28;20185;-85
2023/10/21 01:25:19;;;;;;;0.00;0.00;;;;;;;;;;4991276;28;20691;-86
2023/10/21 01:27:45;;;;;;;0.33;0.23;;;;;;;;;;4992374;28;20237;-85
2023/10/21 01:30:10;;;;;;;0.17;0.17;;;;;;;;;;4992392;28;20180;-86
2023/10/21 01:32:35;;;;;;;1.33;1.13;;;;;;;;;;4991571;28;20268;-85
2023/10/21 01:35:01;;;;;;;0.67;0.30;;;;;;;;;;4996376;28;20181;-86
2023/10/21 01:37:26;;;;;;;0.20;0.20;;;;;;;;;;4995726;28;20674;-85
2023/10/21 01:39:51;;;;;;;0.00;0.00;;;;;;;;;;4996041;28;20181;-85
2023/10/21 01:42:17;;;;;;;0.00;0.00;;;;;;;;;;4995908;28;20192;-85
2023/10/21 01:44:42;;;;;;;0.03;0.03;;;;;;;;;;4995766;28;20169;-86
2023/10/21 01:47:07;;;;;;;0.33;0.33;;;;;;;;;;4995625;28;20208;-86
2023/10/21 01:49:32;;;;;;;0.00;0.00;;;;;;;;;;4994685;28;20176;-85
2023/10/21 01:51:58;;;;;;;0.00;0.00;;;;;;;;;;4995710;28;20173;-85
2023/10/21 01:54:23;;;;;;;0.43;0.10;;;;;;;;;;4994290;28;20188;-86
2023/10/21 01:56:48;;;;;;;0.03;0.03;;;;;;;;;;4995901;28;20204;-86
2023/10/21 01:59:14;;;;;;;0.00;0.00;;;;;;;;;;4996059;28;20563;-87
2023/10/21 02:01:43;;;;;;;0.20;0.10;;;;;;;;;;4995656;28;20188;-85
2023/10/21 02:04:08;;;;;;;0.00;0.00;;;;;;;;;;4994030;28;20207;-86
2023/10/21 02:06:33;;;;;;;0.57;0.57;;;;;;;;;;4995487;28;20201;-86
2023/10/21 02:08:59;;;;;;;0.00;0.00;;;;;;;;;;4994261;28;20177;-86
2023/10/21 02:11:27;;;;;;;0.50;0.50;;;;;;;;;;4995313;28;20170;-86
2023/10/21 02:13:52;;;;;;;0.00;0.00;;;;;;;;;;5010379;28;20169;-86
2023/10/21 02:18:59;;;;;;;0.00;0.00;;;;;;;;;;4995777;28;20173;-86
2023/10/21 02:21:24;;;;;;;0.00;0.00;;;;;;;;;;4995158;28;20184;-86
2023/10/21 02:23:50;;;;;;;0.00;0.00;;;;;;;;;;4994905;28;20177;-86
2023/10/21 02:26:16;;;;;;;0.00;0.00;;;;;;;;;;4994989;28;20343;-86
2023/10/21 02:28:41;;;;;;;0.10;0.10;;;;;;;;;;4995212;28;20173;-85
2023/10/21 02:31:06;;;;;;;0.00;0.00;;;;;;;;;;4994516;28;20556;-85
2023/10/21 02:33:31;;;;;;;1.40;1.40;;;;;;;;;;4994805;28;20174;-86
2023/10/21 02:35:56;;;;;;;0.00;0.00;;;;;;;;;;4994710;28;20612;-87
2023/10/21 02:38:25;;;;;;;0.23;0.23;;;;;;;;;;4993488;28;20217;-86
2023/10/21 02:40:50;;;;;;;0.00;0.00;;;;;;;;;;4995206;28;20239;-86
2023/10/21 02:43:16;;;;;;;0.00;0.00;;;;;;;;;;4994539;28;20173;-84
2023/10/21 02:45:42;;;;;;;0.00;0.00;;;;;;;;;;4994941;28;20177;-84
2023/10/21 02:48:08;;;;;;;0.00;0.00;;;;;;;;;;4994438;28;20193;-84
2023/10/21 02:50:33;;;;;;;0.00;0.00;;;;;;;;;;4994637;28;20205;-86
2023/10/21 02:52:58;;;;;;;0.00;0.00;;;;;;;;;;4994371;28;20201;-86
2023/10/21 02:55:26;;;;;;;0.00;0.00;;;;;;;;;;4994807;28;20181;-85
2023/10/21 02:57:51;;;;;;;0.13;0.13;;;;;;;;;;4994742;28;20235;-86
2023/10/21 03:00:17;;;;;;;0.00;0.00;;;;;;;;;;4993699;28;20196;-86
2023/10/21 03:02:43;;;;;;;2.27;2.17;;;;;;;;;;4994368;28;20173;-85
2023/10/21 03:05:08;;;;;;;0.83;0.83;;;;;;;;;;4997623;28;20177;-85
2023/10/21 03:07:33;;;;;;;3.73;2.43;;;;;;;;;;5015642;28;20268;-85
2023/10/21 03:09:59;;;;;;;0.83;0.83;;;;;;;;;;5015416;28;20168;-85
2023/10/21 03:12:24;;;;;;;0.30;0.30;;;;;;;;;;5014873;28;20249;-86
2023/10/21 03:14:49;;;;;;;0.27;0.27;;;;;;;;;;4999560;28;20223;-86
2023/10/21 03:17:14;;;;;;;1.03;1.03;;;;;;;;;;4995207;28;20204;-86
2023/10/21 03:19:39;;;;;;;0.27;0.27;;;;;;;;;;4994435;28;20184;-86
2023/10/21 03:22:05;;;;;;;0.03;0.03;;;;;;;;;;4994565;28;20655;-86
2023/10/21 03:24:30;;;;;;;0.53;0.53;;;;;;;;;;4994351;28;20181;-86
2023/10/21 03:26:55;;;;;;;0.00;0.00;;;;;;;;;;4994660;28;20699;-85
2023/10/21 03:29:20;;;;;;;0.00;0.00;;;;;;;;;;4994766;28;20252;-85
2023/10/21 03:31:45;;;;;;;0.00;0.00;;;;;;;;;;4993714;28;20181;-86
2023/10/21 03:34:11;;;;;;;0.00;0.00;;;;;;;;;;4994181;28;20541;-86
2023/10/21 03:36:36;;;;;;;0.00;0.00;;;;;;;;;;4992929;28;20216;-86
2023/10/21 03:39:01;;;;;;;2.30;1.50;;;;;;;;;;4992674;28;20254;-86
2023/10/21 03:41:26;;;;;;;0.17;0.17;;;;;;;;;;4993664;28;20657;-86
2023/10/21 03:43:52;;;;;;;0.00;0.00;;;;;;;;;;4992198;28;20176;-84
2023/10/21 03:46:17;;;;;;;0.00;0.00;;;;;;;;;;4993412;28;20243;-86
2023/10/21 03:48:42;;;;;;;0.00;0.00;;;;;;;;;;4992295;28;20227;-86
2023/10/21 03:51:11;;;;;;;2.00;1.70;;;;;;;;;;4992439;28;20256;-85
2023/10/21 03:53:36;;;;;;;0.00;0.00;;;;;;;;;;4992205;28;20207;-85
2023/10/21 03:56:02;;;;;;;1.30;1.30;;;;;;;;;;4991965;28;20185;-86
2023/10/21 03:58:28;;;;;;;0.00;0.00;;;;;;;;;;4993640;28;20200;-86
2023/10/21 04:00:59;;;;;;;0.73;0.73;;;;;;;;;;4993531;28;20524;-86
2023/10/21 04:03:25;;;;;;;0.73;0.73;;;;;;;;;;4993107;28;20582;-86
2023/10/21 04:05:50;;;;;;;0.00;0.00;;;;;;;;;;4993375;28;20196;-85
2023/10/21 04:08:15;;;;;;;0.00;0.00;;;;;;;;;;4991828;28;20204;-86
2023/10/21 04:10:41;;;;;;;0.00;0.00;;;;;;;;;;4992271;28;20210;-85
2023/10/21 04:13:06;;;;;;;0.37;0.37;;;;;;;;;;4992936;28;20173;-86
2023/10/21 04:15:31;;;;;;;0.73;0.13;;;;;;;;;;4991876;28;20252;-86
2023/10/21 04:17:56;;;;;;;0.03;0.03;;;;;;;;;;4992331;28;20201;-86
2023/10/21 04:20:22;;;;;;;0.20;0.20;;;;;;;;;;4992713;28;20195;-84
2023/10/21 04:22:47;;;;;;;0.47;0.43;;;;;;;;;;4993303;28;20172;-86
2023/10/21 04:25:12;;;;;;;1.80;1.70;;;;;;;;;;4994231;28;20178;-86
2023/10/21 04:27:38;;;;;;;0.00;0.00;;;;;;;;;;5008500;28;20633;-86
2023/10/21 04:30:03;;;;;;;0.27;0.27;;;;;;;;;;4993480;28;20169;-87
2023/10/21 04:32:29;;;;;;;0.07;0.07;;;;;;;;;;4992154;28;20652;-85
2023/10/21 04:34:55;;;;;;;0.20;0.20;;;;;;;;;;4993521;28;20173;-86
2023/10/21 04:37:20;;;;;;;2.83;2.73;;;;;;;;;;4993807;28;20727;-86
2023/10/21 04:39:46;;;;;;;0.03;0.03;;;;;;;;;;4994273;28;20173;-86
2023/10/21 04:42:11;;;;;;;0.00;0.00;;;;;;;;;;4992261;28;20181;-86
2023/10/21 04:44:37;;;;;;;0.00;0.00;;;;;;;;;;4991882;28;20224;-85
2023/10/21 04:47:02;;;;;;;0.00;0.00;;;;;;;;;;4993326;28;20599;-86
2023/10/21 04:49:27;;;;;;;0.00;0.00;;;;;;;;;;4992641;28;20220;-86
2023/10/21 04:51:52;;;;;;;0.00;0.00;;;;;;;;;;4993578;28;20173;-84
2023/10/21 04:54:18;;;;;;;0.00;0.00;;;;;;;;;;4992245;28;20260;-83
2023/10/21 04:56:43;;;;;;;0.00;0.00;;;;;;;;;;4993801;28;20207;-84
2023/10/21 04:59:08;;;;;;;0.00;0.00;;;;;;;;;;4992146;28;20181;-84
2023/10/21 05:01:34;;;;;;;0.00;0.00;;;;;;;;;;4993504;28;20180;-84
2023/10/21 05:03:59;;;;;;;0.00;0.00;;;;;;;;;;4993113;28;20185;-84
2023/10/21 05:06:24;;;;;;;0.00;0.00;;;;;;;;;;4993079;28;20200;-83
2023/10/21 05:08:49;;;;;;;0.40;0.40;;;;;;;;;;4995945;28;20176;-84
2023/10/21 05:11:15;;;;;;;0.00;0.00;;;;;;;;;;4996909;28;20173;-84
2023/10/21 05:13:40;;;;;;;0.00;0.00;;;;;;;;;;4995768;28;20188;-84
2023/10/21 05:16:05;;;;;;;0.23;0.23;;;;;;;;;;4997160;28;20181;-84
2023/10/21 05:18:30;;;;;;;0.47;0.47;;;;;;;;;;4996966;28;20197;-84
2023/10/21 05:20:56;;;;;;;0.20;0.20;;;;;;;;;;4997123;28;20173;-84
2023/10/21 05:23:21;;;;;;;0.00;0.00;;;;;;;;;;4996489;28;20209;-84
2023/10/21 05:25:46;;;;;;;0.00;0.00;;;;;;;;;;4996866;28;20228;-84
2023/10/21 05:28:12;;;;;;;0.10;0.10;;;;;;;;;;4996923;28;20196;-84
2023/10/21 05:30:37;;;;;;;0.40;0.40;;;;;;;;;;4997096;28;20586;-85
2023/10/21 05:33:02;;;;;;;0.00;0.00;;;;;;;;;;4995196;28;20185;-84
2023/10/21 05:35:28;;;;;;;0.20;0.20;;;;;;;;;;4997095;28;20174;-84
2023/10/21 05:37:53;;;;;;;0.00;0.00;;;;;;;;;;5028811;23;20710;-89
2023/10/21 05:40:18;;;;;;;0.00;0.00;;;;;;;;;;5032846;28;20553;-90
2023/10/21 05:42:43;;;;;;;0.17;0.17;;;;;;;;;;5027235;28;20211;-90
2023/10/21 05:45:09;;;;;;;0.00;0.00;;;;;;;;;;5019240;28;20646;-90
2023/10/21 05:47:35;;;;;;;2.00;2.00;;;;;;;;;;5030405;28;20215;-89
2023/10/21 05:50:00;;;;;;;0.00;0.00;;;;;;;;;;5014313;28;20184;-90
2023/10/21 05:52:25;;;;;;;0.97;0.97;;;;;;;;;;5013871;28;20181;-89
2023/10/21 05:54:50;;;;;;;0.00;0.00;;;;;;;;;;5021988;28;20176;-89
2023/10/21 05:57:16;;;;;;;0.00;0.00;;;;;;;;;;5013749;28;20752;-89
2023/10/21 05:59:41;;;;;;;0.00;0.00;;;;;;;;;;5030349;28;20539;-90
2023/10/21 06:02:07;;;;;;;0.00;0.00;;;;;;;;;;5013736;28;20275;-89
2023/10/21 06:04:32;;;;;;;0.00;0.00;;;;;;;;;;5006019;28;20263;-90
2023/10/21 06:06:58;;;;;;;0.30;0.30;;;;;;;;;;5030004;28;20354;-89
2023/10/21 06:09:23;;;;;;;0.67;0.67;;;;;;;;;;5022744;28;20173;-91
2023/10/21 06:11:49;;;;;;;0.00;0.00;;;;;;;;;;5030052;28;20275;-89
2023/10/21 06:14:14;;;;;;;0.00;0.00;;;;;;;;;;5013288;28;20222;-89
2023/10/21 06:16:39;;;;;;;0.00;0.00;;;;;;;;;;5014592;28;20209;-89
2023/10/21 06:19:04;;;;;;;0.00;0.00;;;;;;;;;;5016703;28;20196;-89
2023/10/21 06:21:30;;;;;;;0.00;0.00;;;;;;;;;;5021891;28;20235;-89
2023/10/21 06:23:55;;;;;;;0.10;0.10;;;;;;;;;;5013156;28;20211;-89
2023/10/21 06:26:20;;;;;;;1.30;1.30;;;;;;;;;;5028272;28;20249;-90
2023/10/21 06:28:45;;;;;;;0.00;0.00;;;;;;;;;;5015408;28;20247;-89
2023/10/21 06:31:11;;;;;;;0.00;0.00;;;;;;;;;;5021507;28;20669;-89
2023/10/21 06:33:36;;;;;;;0.00;0.00;;;;;;;;;;5012837;28;20183;-88
2023/10/21 06:36:03;;;;;;;0.00;0.00;;;;;;;;;;5017698;28;20180;-89
2023/10/21 06:38:28;;;;;;;0.00;0.00;;;;;;;;;;5013304;28;20565;-89
2023/10/21 06:40:53;;;;;;;0.00;0.00;;;;;;;;;;5021305;28;20231;-89
2023/10/21 06:43:18;;;;;;;0.00;0.00;;;;;;;;;;5012647;28;20176;-89
2023/10/21 06:45:45;;;;;;;0.00;0.00;;;;;;;;;;5013023;28;20677;-88
2023/10/21 06:48:10;;;;;;;0.00;0.00;;;;;;;;;;5021088;28;20208;-90
2023/10/21 06:50:35;;;;;;;0.00;0.00;;;;;;;;;;5012974;28;20188;-90
2023/10/21 06:53:00;;;;;;;0.00;0.00;;;;;;;;;;5009330;28;20228;-90
2023/10/21 06:55:26;;;;;;;0.00;0.00;;;;;;;;;;5025831;28;20235;-90
2023/10/21 06:57:52;;;;;;;0.00;0.00;;;;;;;;;;5012582;28;20211;-89
2023/10/21 07:00:17;;;;;;;0.00;0.00;;;;;;;;;;5012978;28;20188;-89
2023/10/21 07:02:42;;;;;;;0.00;0.00;;;;;;;;;;5011975;28;20176;-89
2023/10/21 07:05:09;;;;;;;0.00;0.00;;;;;;;;;;5029494;28;20222;-90
2023/10/21 07:07:35;;;;;;;0.00;0.00;;;;;;;;;;5009336;28;20262;-89
2023/10/21 07:10:01;;;;;;;0.00;0.00;;;;;;;;;;5012470;28;20263;-89
2023/10/21 07:12:26;;;;;;;0.00;0.00;;;;;;;;;;5011179;28;20298;-88
2023/10/21 07:14:52;;;;;;;0.00;0.00;;;;;;;;;;5011144;28;20184;-90
2023/10/21 07:17:17;;;;;;;0.00;0.00;;;;;;;;;;5026696;28;20228;-89
2023/10/21 07:19:42;;;;;;;0.00;0.00;;;;;;;;;;5010275;28;20176;-89
2023/10/21 07:22:07;;;;;;;0.00;0.00;;;;;;;;;;5012587;28;20181;-89
2023/10/21 07:24:33;;;;;;;0.00;0.00;;;;;;;;;;5029012;28;20184;-90
2023/10/21 07:26:58;;;;;;;0.00;0.00;;;;;;;;;;5012334;28;20670;-89
2023/10/21 07:29:23;;;;;;;0.00;0.00;;;;;;;;;;5020573;28;20251;-90
2023/10/21 07:31:49;;;;;;;0.00;0.00;;;;;;;;;;5027456;28;20218;-86
2023/10/21 07:34:14;;;;;;;0.10;0.10;;;;;;;;;;5012477;28;20181;-86
2023/10/21 07:36:39;;;;;;;2.37;2.33;;;;;;;;;;5012126;28;20184;-86
2023/10/21 07:39:05;;;;;;;0.00;0.00;;;;;;;;;;5012669;28;20266;-86
2023/10/21 07:41:30;;;;;;;0.00;0.00;;;;;;;;;;5012147;28;20176;-87
2023/10/21 07:43:55;;;;;;;0.00;0.00;;;;;;;;;;5011529;28;20433;-86
2023/10/21 07:46:20;;;;;;;0.00;0.00;;;;;;;;;;5012368;28;20196;-86
2023/10/21 07:48:45;;;;;;;0.67;0.67;;;;;;;;;;5012784;28;20196;-86
2023/10/21 07:51:11;;;;;;;0.00;0.00;;;;;;;;;;5012598;28;20215;-86
2023/10/21 07:53:36;;;;;;;0.00;0.00;;;;;;;;;;5012424;28;20172;-86
2023/10/21 07:56:01;;;;;;;0.00;0.00;;;;;;;;;;5012623;28;20185;-86
2023/10/21 07:58:27;;;;;;;0.07;0.07;;;;;;;;;;5012377;28;20200;-86
2023/10/21 08:00:52;;;;;;;0.00;0.00;;;;;;;;;;5012140;28;20677;-88
2023/10/21 08:03:17;;;;;;;1.40;1.40;;;;;;;;;;5012413;28;20184;-85
2023/10/21 08:05:43;;;;;;;0.70;0.70;;;;;;;;;;5011455;28;20191;-87
2023/10/21 08:08:08;;;;;;;0.00;0.00;;;;;;;;;;5012628;28;20722;-88
2023/10/21 08:10:34;;;;;;;0.83;0.83;;;;;;;;;;5011680;28;20223;-88
2023/10/21 08:12:59;;;;;;;1.33;1.03;;;;;;;;;;5011675;28;20183;-87
2023/10/21 08:15:24;;;;;;;0.03;0.03;;;;;;;;;;5012355;28;20178;-88
2023/10/21 08:17:50;;;;;;;4.47;2.50;;;;;;;;;;5013289;28;20609;-87
2023/10/21 08:20:16;;;;;;;2.27;2.13;;;;;;;;;;5011481;28;20279;-86
2023/10/21 08:22:42;;;;;;;3.63;2.10;;;;;;;;;;5010138;28;20179;-87
2023/10/21 08:25:08;;;;;;;2.07;1.73;;;;;;;;;;5012899;28;20176;-87
2023/10/21 08:27:33;;;;;;;3.20;2.03;;;;;;;;;;5012857;28;20265;-88
2023/10/21 08:29:58;;;;;;;1.30;1.20;;;;;;;;;;5011953;28;20184;-86
2023/10/21 08:32:23;;;;;;;3.10;2.10;;;;;;;;;;5013064;28;20177;-87
2023/10/21 08:34:49;;;;;;;2.10;1.30;;;;;;;;;;5013122;28;20179;-87
2023/10/21 08:37:16;;;;;;;3.23;1.27;;;;;;;;;;5013064;28;20313;-87
2023/10/21 08:39:43;;;;;;;3.17;0.90;;;;;;;;;;5013214;28;20180;-87
2023/10/21 08:42:09;;;;;;;4.00;0.70;;;;;;;;;;5012674;28;20184;-87
2023/10/21 08:44:36;;;;;;;0.50;0.50;;;;;;;;;;5012508;28;20260;-88
2023/10/21 08:47:02;;;;;;;0.20;0.20;;;;;;;;;;5012759;28;20235;-87
2023/10/21 08:49:28;;;;;;;0.20;0.20;;;;;;;;;;5011862;28;20256;-87
2023/10/21 08:51:55;;;;;;;0.47;0.47;;;;;;;;;;5013490;28;20259;-87
2023/10/21 08:54:20;;;;;;;0.93;0.80;;;;;;;;;;5013081;28;20259;-87
2023/10/21 08:56:45;;;;;;;0.70;0.70;;;;;;;;;;5011761;28;20615;-87
2023/10/21 08:59:12;;;;;;;0.50;0.50;;;;;;;;;;5012658;28;20192;-87
2023/10/21 09:01:37;;;;;;;0.30;0.30;;;;;;;;;;5013341;28;20210;-87
2023/10/21 09:04:03;;;;;;;0.40;0.33;;;;;;;;;;5012509;28;20207;-87
2023/10/21 09:06:29;;;;;;;0.50;0.40;;;;;;;;;;5012705;28;20196;-87
2023/10/21 09:08:54;;;;;;;0.20;0.20;;;;;;;;;;5012872;28;20195;-87
2023/10/21 09:11:20;;;;;;;0.30;0.30;;;;;;;;;;5013038;28;20172;-87
2023/10/21 09:13:46;;;;;;;0.27;0.27;;;;;;;;;;5012543;28;20176;-87
2023/10/21 09:16:23;;;;;;;0.43;0.27;;;;;;;;;;5012796;28;20176;-88
2023/10/21 09:18:56;;;;;;;0.40;0.40;;;;;;;;;;5020283;28;20207;-87
2023/10/21 09:21:31;;;;;;;0.80;0.30;;;;;;;;;;5012713;28;20176;-86
2023/10/21 09:23:56;;;;;;;0.37;0.37;;;;;;;;;;5012361;28;20168;-88
2023/10/21 09:26:21;;;;;;;0.20;0.20;;;;;;;;;;5011853;28;20197;-88
2023/10/21 09:28:47;;;;;;;0.20;0.20;;;;;;;;;;5010919;28;20212;-88
2023/10/21 09:31:13;;;;;;;3.63;0.40;;;;;;;;;;5011260;28;20172;-87
2023/10/21 09:33:53;;;;;;;0.63;0.33;;;;;;;;;;5010954;28;20184;-88
2023/10/21 09:36:18;;;;;;;0.00;0.00;;;;;;;;;;5012026;28;20177;-88
2023/10/21 09:38:43;;;;;;;0.00;0.00;;;;;;;;;;5011456;28;20594;-88
2023/10/21 09:41:08;;;;;;;0.30;0.30;;;;;;;;;;5012012;28;20176;-87
2023/10/21 09:43:36;;;;;;;0.00;0.00;;;;;;;;;;5010711;28;20242;-88
2023/10/21 09:46:05;;;;;;;0.00;0.00;;;;;;;;;;5012196;28;20181;-87
2023/10/21 09:48:30;;;;;;;0.10;0.10;;;;;;;;;;5011787;28;20285;-88
2023/10/21 09:50:56;;;;;;;0.20;0.20;;;;;;;;;;5011857;28;20204;-88
2023/10/21 09:53:27;;;;;;;10.17;0.67;;;;;;;;;;5009858;28;20177;-87
2023/10/21 09:55:53;;;;;;;0.10;0.00;;;;;;;;;;5009616;28;20184;-87
2023/10/21 09:58:19;;;;;;;0.50;0.20;;;;;;;;;;5014961;28;20283;-88
2023/10/21 10:00:46;;;;;;;0.00;0.00;;;;;;;;;;5014300;28;20268;-87
2023/10/21 10:03:11;;;;;;;0.10;0.10;;;;;;;;;;5013597;28;20182;-87
2023/10/21 10:05:38;;;;;;;0.20;0.20;;;;;;;;;;5014907;28;20176;-87
2023/10/21 10:08:04;;;;;;;0.10;0.10;;;;;;;;;;5028966;28;20197;-88
2023/10/21 10:10:29;;;;;;;0.20;0.20;;;;;;;;;;5013146;28;20260;-88
2023/10/21 10:12:54;;;;;;;0.00;0.00;;;;;;;;;;5014684;28;20173;-88
2023/10/21 10:15:29;;;;;;;0.97;0.57;;;;;;;;;;5014583;28;20196;-88
2023/10/21 10:17:54;;;;;;;0.00;0.00;;;;;;;;;;5014775;28;20279;-89
2023/10/21 10:20:24;;;;;;;0.00;0.00;;;;;;;;;;5030137;28;20256;-88
2023/10/21 10:23:07;;;;;;;0.00;0.00;;;;;;;;;;5015666;28;20275;-88
2023/10/21 10:25:34;;;;;;;0.00;0.00;;;;;;;;;;5006894;28;20643;-87
2023/10/21 10:28:00;;;;;;;0.00;0.00;;;;;;;;;;5013053;28;20598;-88
2023/10/21 10:30:32;;;;;;;0.00;0.00;;;;;;;;;;5014454;28;20176;-88
2023/10/21 10:33:01;;;;;;;0.20;0.10;;;;;;;;;;5015167;28;20177;-90
2023/10/21 10:35:32;;;;;;;0.00;0.00;;;;;;;;;;5015059;28;20176;-89
2023/10/21 10:38:01;;;;;;;0.00;0.00;;;;;;;;;;5014990;28;20683;-88
2023/10/21 10:40:34;;;;;;;0.00;0.00;;;;;;;;;;5014958;28;20185;-88
2023/10/21 10:42:59;;;;;;;0.00;0.00;;;;;;;;;;5014560;28;20714;-88
2023/10/21 10:45:25;;;;;;;0.20;0.20;;;;;;;;;;5014950;28;20207;-88
2023/10/21 10:48:03;;;;;;;0.53;0.13;;;;;;;;;;5014650;28;20623;-88
2023/10/21 10:50:29;;;;;;;0.00;0.00;;;;;;;;;;5013182;28;20274;-88
2023/10/21 10:52:55;;;;;;;0.10;0.10;;;;;;;;;;5013069;28;20259;-89
2023/10/21 10:55:21;;;;;;;0.10;0.10;;;;;;;;;;5014238;28;20231;-88
2023/10/21 10:57:47;;;;;;;0.17;0.17;;;;;;;;;;5013994;28;20200;-88
2023/10/21 11:00:20;;;;;;;0.00;0.00;;;;;;;;;;5029302;28;20635;-88
2023/10/21 11:02:46;;;;;;;0.70;0.20;;;;;;;;;;5012586;28;20188;-89
2023/10/21 11:05:20;;;;;;;0.10;0.10;;;;;;;;;;5013768;28;20733;-88
2023/10/21 11:07:46;;;;;;;0.00;0.00;;;;;;;;;;5012878;28;20212;-88
2023/10/21 11:10:14;;;;;;;2.03;1.70;;;;;;;;;;5029611;28;20611;-88
2023/10/21 11:12:40;;;;;;;0.00;0.00;;;;;;;;;;5013955;28;20184;-88
2023/10/21 11:15:06;;;;;;;0.10;0.10;;;;;;;;;;5014762;28;20180;-88
2023/10/21 11:17:32;;;;;;;0.10;0.10;;;;;;;;;;5013836;28;20207;-88
2023/10/21 11:19:58;;;;;;;0.00;0.00;;;;;;;;;;5012927;28;20239;-88
2023/10/21 11:22:28;;;;;;;0.00;0.00;;;;;;;;;;5014019;28;20180;-89
2023/10/21 11:24:53;;;;;;;0.10;0.10;;;;;;;;;;5013330;28;20180;-88
2023/10/21 11:27:18;;;;;;;0.00;0.00;;;;;;;;;;5013004;28;20223;-89
2023/10/21 11:29:44;;;;;;;0.30;0.30;;;;;;;;;;5014357;28;20596;-88
2023/10/21 11:32:13;;;;;;;0.00;0.00;;;;;;;;;;5014088;28;20196;-88
2023/10/21 11:34:42;;;;;;;0.00;0.00;;;;;;;;;;5020600;28;20246;-88
2023/10/21 11:39:35;;;;;;;0.00;0.00;;;;;;;;;;5014375;22;20706;-84
2023/10/21 11:42:00;;;;;;;0.00;0.00;;;;;;;;;;4993224;28;20256;-84
2023/10/21 11:44:27;;;;;;;0.00;0.00;;;;;;;;;;4992496;28;20173;-84
2023/10/21 11:46:59;;;;;;;0.13;0.10;;;;;;;;;;4990676;28;20577;-83
2023/10/21 11:49:25;;;;;;;0.90;0.10;;;;;;;;;;4992957;28;20197;-84
2023/10/21 11:51:52;;;;;;;0.00;0.00;;;;;;;;;;4993401;28;20659;-83
2023/10/21 11:54:32;;;;;;;0.60;0.60;;;;;;;;;;4992911;28;20173;-83
2023/10/21 12:13:43;;;;;;;0.10;0.10;;;;;;;;;;4993348;28;20181;-83
2023/10/21 12:21:44;;;;;;;0.10;0.10;;;;;;;;;;4992814;28;20556;-85
2023/10/21 12:30:24;;;;;;;0.10;0.10;;;;;;;;;;4993041;28;20911;-86
2023/10/21 12:40:38;;;;;;;6.03;0.33;;;;;;;;;;4993165;28;20420;-85
2023/10/21 12:45:49;;;;;;;0.00;0.00;;;;;;;;;;4993154;28;20192;-86
2023/10/21 12:48:17;;;;;;;0.30;0.27;;;;;;;;;;4991373;28;20219;-86
2023/10/21 12:50:42;;;;;;;0.00;0.00;;;;;;;;;;4992547;28;20173;-86
2023/10/21 12:53:08;;;;;;;0.00;0.00;;;;;;;;;;4992399;28;20279;-86
2023/10/21 12:55:35;;;;;;;0.47;0.47;;;;;;;;;;4992624;28;20188;-86
2023/10/21 12:58:00;;;;;;;0.13;0.07;;;;;;;;;;4992535;28;20268;-86
2023/10/21 13:00:26;;;;;;;0.10;0.10;;;;;;;;;;4992059;28;20276;-86
2023/10/21 13:02:51;;;;;;;1.50;0.47;;;;;;;;;;4990898;28;20665;-86
2023/10/21 13:05:16;;;;;;;0.00;0.00;;;;;;;;;;4990695;28;20235;-86
2023/10/21 13:07:41;;;;;;;0.10;0.10;;;;;;;;;;4991589;28;20208;-85
2023/10/21 13:10:10;;;;;;;1.50;1.10;;;;;;;;;;4991653;28;20221;-86
2023/10/21 13:12:36;;;;;;;0.10;0.10;;;;;;;;;;4990219;28;20188;-85
2023/10/21 13:15:04;;;;;;;0.07;0.07;;;;;;;;;;4991681;28;20230;-85
2023/10/21 13:17:29;;;;;;;0.57;0.53;;;;;;;;;;4991893;28;20173;-86
2023/10/21 13:19:54;;;;;;;0.00;0.00;;;;;;;;;;4992417;28;20519;-86
2023/10/21 13:22:20;;;;;;;0.43;0.40;;;;;;;;;;4992070;28;20177;-86
2023/10/21 13:24:45;;;;;;;0.00;0.00;;;;;;;;;;4992016;28;20721;-86
2023/10/21 13:27:10;;;;;;;0.40;0.40;;;;;;;;;;4992018;28;20216;-86
2023/10/21 13:29:38;;;;;;;0.00;0.00;;;;;;;;;;4994430;28;20275;-87
2023/10/21 13:32:04;;;;;;;0.27;0.10;;;;;;;;;;4995790;28;20195;-86
2023/10/21 13:34:29;;;;;;;0.37;0.37;;;;;;;;;;4995590;28;20706;-86
2023/10/21 13:36:56;;;;;;;0.60;0.60;;;;;;;;;;4995794;28;20244;-86
2023/10/21 13:39:23;;;;;;;0.40;0.10;;;;;;;;;;4995627;28;20217;-86
2023/10/21 13:41:48;;;;;;;0.37;0.23;;;;;;;;;;4995693;28;20228;-86
2023/10/21 13:44:13;;;;;;;3.97;1.43;;;;;;;;;;4995296;28;20543;-86
2023/10/21 13:46:38;;;;;;;0.20;0.20;;;;;;;;;;4994236;28;20201;-86
2023/10/21 13:49:09;;;;;;;0.87;0.50;;;;;;;;;;4995792;28;20231;-86
2023/10/21 13:51:34;;;;;;;2.20;0.37;;;;;;;;;;4994380;28;20173;-86
2023/10/21 13:54:00;;;;;;;0.37;0.37;;;;;;;;;;4995148;28;20730;-86
2023/10/21 13:56:25;;;;;;;0.03;0.03;;;;;;;;;;4995568;28;20173;-86
2023/10/21 13:58:50;;;;;;;0.03;0.03;;;;;;;;;;4994349;28;20284;-86
2023/10/21 14:01:15;;;;;;;0.00;0.00;;;;;;;;;;4995619;28;20264;-86
2023/10/21 14:03:41;;;;;;;0.83;0.67;;;;;;;;;;4994381;28;20240;-87
2023/10/21 14:06:06;;;;;;;0.67;0.50;;;;;;;;;;4998526;28;20169;-86
2023/10/21 14:08:31;;;;;;;0.00;0.00;;;;;;;;;;4996560;28;20200;-87
2023/10/21 14:11:00;;;;;;;0.10;0.10;;;;;;;;;;4996402;28;20200;-87
2023/10/21 14:13:28;;;;;;;0.00;0.00;;;;;;;;;;4992612;28;20652;-87
2023/10/21 14:15:54;;;;;;;0.30;0.23;;;;;;;;;;4994865;28;20165;-87
2023/10/21 14:18:19;;;;;;;0.00;0.00;;;;;;;;;;4994699;28;20616;-87
2023/10/21 14:20:49;;;;;;;0.20;0.10;;;;;;;;;;4995058;28;20181;-86
2023/10/21 14:23:15;;;;;;;0.00;0.00;;;;;;;;;;4992344;28;20178;-87
2023/10/21 14:25:41;;;;;;;1.20;1.20;;;;;;;;;;4995004;28;20188;-87
2023/10/21 14:28:10;;;;;;;0.00;0.00;;;;;;;;;;4992324;28;20215;-87
2023/10/21 14:30:36;;;;;;;0.10;0.10;;;;;;;;;;4989679;28;20181;-87
2023/10/21 14:33:03;;;;;;;0.00;0.00;;;;;;;;;;4993771;28;20188;-86
2023/10/21 14:35:28;;;;;;;0.00;0.00;;;;;;;;;;4994513;28;20200;-87
2023/10/21 14:37:53;;;;;;;0.33;0.33;;;;;;;;;;4994447;28;20212;-87
2023/10/21 14:40:18;;;;;;;0.10;0.10;;;;;;;;;;4994086;28;20667;-87
2023/10/21 14:42:43;;;;;;;0.00;0.00;;;;;;;;;;4994169;28;20185;-86
2023/10/21 14:45:10;;;;;;;0.00;0.00;;;;;;;;;;4991847;28;20207;-86
2023/10/21 14:47:36;;;;;;;0.00;0.00;;;;;;;;;;4993059;28;20217;-86
2023/10/21 14:50:02;;;;;;;0.00;0.00;;;;;;;;;;4989976;28;20180;-87
2023/10/21 14:52:27;;;;;;;0.20;0.20;;;;;;;;;;4993343;28;20174;-86
2023/10/21 14:54:55;;;;;;;0.30;0.30;;;;;;;;;;4992672;28;20721;-87
2023/10/21 14:57:20;;;;;;;0.00;0.00;;;;;;;;;;5009202;28;20264;-86
2023/10/21 14:59:45;;;;;;;0.00;0.00;;;;;;;;;;4994302;28;20730;-86
2023/10/21 15:02:12;;;;;;;0.03;0.03;;;;;;;;;;4994215;28;20199;-86
2023/10/21 15:04:37;;;;;;;1.73;0.90;;;;;;;;;;4993744;28;20594;-87
2023/10/21 15:07:02;;;;;;;0.70;0.10;;;;;;;;;;4992252;28;20198;-86
2023/10/21 15:09:28;;;;;;;0.10;0.10;;;;;;;;;;4992386;28;20201;-86
2023/10/21 15:11:53;;;;;;;0.30;0.20;;;;;;;;;;4993747;28;20173;-85
2023/10/21 15:14:18;;;;;;;0.00;0.00;;;;;;;;;;4989660;28;20169;-86
2023/10/21 15:16:43;;;;;;;0.00;0.00;;;;;;;;;;4992813;28;20184;-86
2023/10/21 15:19:09;;;;;;;0.10;0.10;;;;;;;;;;4993639;28;20773;-86
2023/10/21 15:21:34;;;;;;;0.00;0.00;;;;;;;;;;4991710;28;20706;-87